Time;durP1;ratioP1;P1;durP2;ratioP2;P2;SDS_P1;SDS_P2;PMS_P1;PMS_P2;Temp;Humidity;BMP_temperature;BMP_pressure;BME280_temperature;BME280_humidity;BME280_pressure;Samples;Min_cycle;Max_cycle;Signal;HPM_P1;HPM_P2
2021/04/28 00:00:30;;;;;;;4.63;1.40;;;9.00;40.90;;;;;;5031514;28;20046;-73
2021/04/28 00:02:56;;;;;;;4.55;1.77;;;9.00;40.90;;;;;;5031258;28;20038;-74
2021/04/28 00:05:23;;;;;;;2.53;1.63;;;9.00;40.90;;;;;;5031452;28;20021;-74
2021/04/28 00:07:50;;;;;;;5.68;1.70;;;9.00;40.90;;;;;;5032383;28;20145;-76
2021/04/28 00:10:18;;;;;;;2.85;1.63;;;9.00;41.50;;;;;;5031765;28;20026;-74
2021/04/28 00:12:44;;;;;;;;;;;9.00;41.00;;;;;;5031963;28;20038;-73
2021/04/28 00:15:16;;;;;;;2.58;1.40;;;8.90;41.00;;;;;;5031767;28;19913;-75
2021/04/28 00:17:42;;;;;;;2.55;1.50;;;8.90;41.20;;;;;;5029705;28;20463;-74
2021/04/28 00:20:10;;;;;;;4.32;1.42;;;9.00;41.20;;;;;;5032892;28;20022;-74
2021/04/28 00:22:37;;;;;;;2.85;1.60;;;9.00;41.10;;;;;;5031178;28;20041;-74
2021/04/28 00:25:08;;;;;;;5.00;1.30;;;9.00;41.10;;;;;;5030850;28;20054;-74
2021/04/28 00:27:34;;;;;;;4.10;1.63;;;8.90;41.00;;;;;;5031039;28;20098;-75
2021/04/28 00:30:01;;;;;;;5.40;1.30;;;8.90;41.00;;;;;;5030024;28;20053;-75
2021/04/28 00:32:30;;;;;;;2.13;1.27;;;9.00;41.20;;;;;;5030542;28;20112;-75
2021/04/28 00:34:57;;;;;;;2.50;1.38;;;8.80;41.10;;;;;;5032675;28;20053;-75
2021/04/28 00:37:22;;;;;;;10.93;1.80;;;8.80;41.50;;;;;;5030702;28;20504;-74
2021/04/28 00:39:49;;;;;;;7.18;1.75;;;8.80;41.50;;;;;;5030511;28;20377;-73
2021/04/28 00:42:18;;;;;;;2.38;1.65;;;8.60;41.50;;;;;;5029690;28;20041;-75
2021/04/28 00:44:44;;;;;;;2.67;1.48;;;8.60;41.50;;;;;;5029784;28;20025;-74
2021/04/28 00:47:10;;;;;;;6.13;1.80;;;8.60;42.00;;;;;;5032460;28;20405;-74
2021/04/28 00:49:36;;;;;;;2.75;1.80;;;8.60;41.50;;;;;;5030555;28;20091;-74
2021/04/28 00:52:04;;;;;;;4.25;1.50;;;8.60;41.70;;;;;;5030234;28;20120;-74
2021/04/28 00:54:31;;;;;;;7.57;2.10;;;8.60;41.80;;;;;;5030516;28;20041;-74
2021/04/28 00:56:58;;;;;;;4.15;1.60;;;8.60;41.70;;;;;;5030612;28;20056;-74
2021/04/28 00:59:25;;;;;;;5.05;1.95;;;8.60;41.90;;;;;;5030600;28;20036;-74
2021/04/28 01:01:51;;;;;;;3.03;1.80;;;8.50;41.90;;;;;;5031842;28;20112;-73
2021/04/28 01:04:17;;;;;;;2.20;1.38;;;8.60;42.00;;;;;;5030465;28;20088;-74
2021/04/28 01:06:45;;;;;;;3.10;1.60;;;8.50;42.00;;;;;;5030453;28;20052;-75
2021/04/28 01:09:14;;;;;;;4.05;1.55;;;8.50;42.00;;;;;;5030067;28;20068;-73
2021/04/28 01:11:42;;;;;;;5.47;1.85;;;8.50;42.00;;;;;;5030328;28;20379;-74
2021/04/28 01:14:08;;;;;;;4.50;1.52;;;8.50;42.20;;;;;;5031838;28;20150;-74
2021/04/28 01:16:34;;;;;;;3.00;1.88;;;8.40;42.30;;;;;;5029055;28;20056;-73
2021/04/28 01:19:04;;;;;;;4.75;1.67;;;8.40;42.40;;;;;;5029299;28;20041;-74
2021/04/28 01:21:31;;;;;;;3.67;1.98;;;8.40;42.40;;;;;;5030192;28;20391;-75
2021/04/28 01:23:56;;;;;;;2.92;1.67;;;8.50;42.80;;;;;;5030111;28;20660;-74
2021/04/28 01:26:25;;;;;;;5.57;1.30;;;8.40;43.10;;;;;;5028935;28;20116;-73
2021/04/28 01:28:51;;;;;;;;;;;8.40;43.80;;;;;;5031867;28;20025;-73
2021/04/28 01:31:17;;;;;;;4.65;1.52;;;8.40;43.10;;;;;;5029927;28;19920;-74
2021/04/28 01:33:51;;;;;;;8.55;1.98;;;8.40;42.70;;;;;;5029649;28;20442;-75
2021/04/28 01:36:22;;;;;;;6.00;1.90;;;8.40;42.70;;;;;;5029712;28;20121;-74
2021/04/28 01:38:53;;;;;;;5.45;2.00;;;8.40;42.70;;;;;;5029685;28;20116;-74
2021/04/28 01:41:19;;;;;;;3.45;1.55;;;8.40;42.90;;;;;;5029818;28;20021;-73
2021/04/28 01:43:46;;;;;;;4.88;2.20;;;8.40;42.90;;;;;;5030257;28;20125;-72
2021/04/28 01:46:13;;;;;;;3.63;1.98;;;8.40;43.10;;;;;;5029451;28;20466;-74
2021/04/28 01:48:43;;;;;;;5.10;1.63;;;8.50;43.00;;;;;;5029576;28;20044;-74
2021/04/28 01:51:10;;;;;;;6.03;2.20;;;8.50;42.90;;;;;;5029739;28;20037;-74
2021/04/28 01:53:37;;;;;;;4.97;1.70;;;8.50;42.90;;;;;;5030003;28;20499;-74
2021/04/28 01:56:04;;;;;;;4.65;2.03;;;8.40;42.80;;;;;;5031100;28;20029;-75
2021/04/28 01:58:31;;;;;;;4.07;1.48;;;8.40;42.70;;;;;;5029546;28;20061;-74
2021/04/28 02:00:57;;;;;;;5.95;1.95;;;8.30;43.00;;;;;;5029568;28;20034;-73
2021/04/28 02:03:24;;;;;;;3.70;1.67;;;8.40;43.20;;;;;;5029200;28;20034;-75
2021/04/28 02:05:51;;;;;;;4.13;2.20;;;8.40;43.10;;;;;;5029501;28;20049;-74
2021/04/28 02:08:18;;;;;;;3.60;1.70;;;8.40;43.20;;;;;;5029416;28;20033;-74
2021/04/28 02:10:44;;;;;;;3.47;1.63;;;8.30;43.10;;;;;;5030832;28;20459;-74
2021/04/28 02:13:18;;;;;;;10.18;2.20;;;8.30;43.20;;;;;;5012153;28;20081;-74
2021/04/28 02:15:45;;;;;;;4.65;1.77;;;8.30;43.40;;;;;;5021096;28;20041;-73
2021/04/28 02:18:13;;;;;;;4.05;2.00;;;8.20;43.60;;;;;;5029147;28;20041;-76
2021/04/28 02:20:39;;;;;;;5.88;1.67;;;8.30;43.70;;;;;;5027722;28;20434;-75
2021/04/28 02:23:05;;;;;;;6.55;2.50;;;8.20;43.70;;;;;;5031002;28;20033;-74
2021/04/28 02:25:32;;;;;;;7.18;2.10;;;8.20;44.10;;;;;;5028075;28;20106;-74
2021/04/28 02:27:58;;;;;;;4.57;1.90;;;8.20;44.00;;;;;;5028928;28;20052;-74
2021/04/28 02:30:27;;;;;;;3.97;1.80;;;8.20;44.00;;;;;;5030015;28;20053;-74
2021/04/28 02:32:54;;;;;;;7.05;2.25;;;8.20;43.90;;;;;;5034758;28;20083;-74
2021/04/28 02:35:21;;;;;;;8.38;1.95;;;8.20;43.90;;;;;;5035722;28;20026;-74
2021/04/28 02:37:50;;;;;;;4.85;1.80;;;8.10;44.20;;;;;;5037257;28;20045;-74
2021/04/28 02:40:17;;;;;;;4.32;2.20;;;8.10;44.20;;;;;;5035666;28;20112;-75
2021/04/28 02:42:45;;;;;;;7.72;2.50;;;8.10;44.30;;;;;;5035315;28;20069;-74
2021/04/28 02:45:14;;;;;;;4.35;1.73;;;8.00;44.30;;;;;;5034506;28;20048;-75
2021/04/28 02:47:40;;;;;;;4.93;2.60;;;8.00;44.40;;;;;;5034933;28;20445;-75
2021/04/28 02:50:08;;;;;;;8.85;2.15;;;7.90;44.40;;;;;;5036947;28;20052;-74
2021/04/28 02:52:35;;;;;;;;;;;7.90;44.60;;;;;;5036116;28;20117;-75
2021/04/28 02:55:01;;;;;;;6.25;2.30;;;7.90;44.60;;;;;;5019436;28;20294;-74
2021/04/28 02:57:28;;;;;;;4.78;1.92;;;7.80;44.50;;;;;;5037911;28;20034;-74
2021/04/28 02:59:54;;;;;;;3.05;1.55;;;7.80;44.90;;;;;;5020069;28;20096;-74
2021/04/28 03:02:20;;;;;;;5.22;2.10;;;7.80;44.70;;;;;;5035435;28;20470;-74
2021/04/28 03:04:46;;;;;;;9.50;2.20;;;7.70;45.10;;;;;;5035857;28;20313;-75
2021/04/28 03:07:14;;;;;;;3.17;1.88;;;7.70;45.10;;;;;;5034094;28;20037;-74
2021/04/28 03:09:43;;;;;;;5.47;2.17;;;7.80;45.20;;;;;;5035043;28;20056;-74
2021/04/28 03:12:11;;;;;;;6.35;2.38;;;7.80;45.20;;;;;;5035231;28;20450;-75
2021/04/28 03:14:37;;;;;;;5.65;2.03;;;7.70;45.10;;;;;;5034047;28;20045;-75
2021/04/28 03:17:03;;;;;;;4.03;2.20;;;7.60;45.40;;;;;;5035615;28;20045;-74
2021/04/28 03:19:30;;;;;;;9.90;2.42;;;7.40;45.40;;;;;;5034964;28;20036;-74
2021/04/28 03:21:56;;;;;;;6.38;2.83;;;7.40;45.60;;;;;;5035070;28;20029;-75
2021/04/28 03:24:25;;;;;;;8.80;2.15;;;7.50;45.80;;;;;;5035101;28;20090;-75
2021/04/28 03:26:53;;;;;;;5.95;2.42;;;7.40;45.70;;;;;;5035502;28;20061;-74
2021/04/28 03:29:19;;;;;;;;;;;7.40;45.80;;;;;;5035037;28;20359;-75
2021/04/28 03:31:45;;;;;;;6.85;2.42;;;7.50;45.90;;;;;;5035669;28;19912;-75
2021/04/28 03:34:11;;;;;;;4.88;2.25;;;7.40;45.80;;;;;;5035109;28;20037;-74
2021/04/28 03:36:37;;;;;;;10.70;5.43;;;7.40;45.80;;;;;;5034973;28;20030;-75
2021/04/28 03:39:04;;;;;;;5.70;2.55;;;7.40;45.90;;;;;;5034860;28;20045;-74
2021/04/28 03:41:30;;;;;;;6.38;2.50;;;7.30;46.00;;;;;;5034461;28;20017;-74
2021/04/28 03:43:56;;;;;;;8.70;2.45;;;7.20;46.10;;;;;;5033226;28;20029;-74
2021/04/28 03:46:22;;;;;;;7.47;1.80;;;7.30;46.00;;;;;;5031824;28;20045;-73
2021/04/28 03:48:48;;;;;;;5.25;2.03;;;7.30;46.10;;;;;;5031873;28;20037;-75
2021/04/28 03:51:14;;;;;;;4.72;2.42;;;7.30;46.10;;;;;;5031724;28;20414;-75
2021/04/28 03:53:40;;;;;;;7.25;3.28;;;7.20;46.40;;;;;;5031503;28;20037;-74
2021/04/28 03:56:06;;;;;;;9.95;2.33;;;7.20;46.30;;;;;;5033263;28;20414;-74
2021/04/28 03:58:32;;;;;;;5.15;2.28;;;7.20;46.30;;;;;;5011394;28;20506;-74
2021/04/28 04:00:57;;;;;;;6.22;2.55;;;7.30;46.40;;;;;;5026314;28;20045;-75
2021/04/28 04:03:23;;;;;;;7.47;2.10;;;7.30;46.60;;;;;;5031629;28;20037;-75
2021/04/28 04:05:50;;;;;;;8.52;2.88;;;7.20;46.30;;;;;;5031758;28;20092;-73
2021/04/28 04:08:16;;;;;;;4.82;2.50;;;7.20;46.40;;;;;;5031490;28;20410;-74
2021/04/28 04:10:42;;;;;;;4.13;2.35;;;7.10;46.60;;;;;;5033391;28;20025;-74
2021/04/28 04:13:07;;;;;;;6.18;3.13;;;7.20;46.80;;;;;;5031641;28;20443;-74
2021/04/28 04:15:33;;;;;;;7.18;2.63;;;7.20;46.70;;;;;;5031480;28;20041;-73
2021/04/28 04:17:58;;;;;;;6.20;2.38;;;7.20;46.80;;;;;;5031586;28;20092;-75
2021/04/28 04:20:24;;;;;;;3.30;2.15;;;7.10;46.70;;;;;;5031431;28;20108;-74
2021/04/28 04:22:50;;;;;;;6.25;2.80;;;7.10;46.90;;;;;;5032745;28;20363;-75
2021/04/28 04:25:16;;;;;;;8.25;2.70;;;7.10;47.10;;;;;;5029863;28;20060;-73
2021/04/28 04:27:42;;;;;;;10.98;2.47;;;7.10;47.10;;;;;;5031271;28;20061;-74
2021/04/28 04:30:09;;;;;;;5.50;2.40;;;7.10;47.30;;;;;;5031246;28;20494;-74
2021/04/28 04:32:35;;;;;;;4.82;2.35;;;7.10;47.40;;;;;;5030888;28;20050;-75
2021/04/28 04:35:00;;;;;;;4.55;2.47;;;7.10;47.40;;;;;;5032373;28;20209;-75
2021/04/28 04:37:26;;;;;;;8.82;2.50;;;7.10;47.40;;;;;;5030727;28;20033;-74
2021/04/28 04:39:52;;;;;;;4.57;2.50;;;7.00;47.60;;;;;;5030534;28;20400;-74
2021/04/28 04:42:17;;;;;;;9.70;2.63;;;7.00;47.60;;;;;;5030886;28;20029;-75
2021/04/28 04:44:43;;;;;;;5.15;2.75;;;7.00;47.70;;;;;;5031062;28;20045;-75
2021/04/28 04:47:08;;;;;;;7.13;2.30;;;7.10;47.70;;;;;;5032272;28;20171;-75
2021/04/28 04:49:37;;;;;;;5.63;2.35;;;7.10;47.70;;;;;;5030731;28;20038;-76
2021/04/28 04:52:04;;;;;;;5.80;2.63;;;7.00;47.80;;;;;;5031120;28;20120;-75
2021/04/28 04:54:30;;;;;;;6.38;2.60;;;7.00;47.90;;;;;;5029418;28;20052;-74
2021/04/28 04:56:56;;;;;;;5.32;1.95;;;6.90;47.90;;;;;;5030511;28;20034;-74
2021/04/28 04:59:22;;;;;;;8.73;2.50;;;6.90;48.00;;;;;;5030738;28;20155;-74
2021/04/28 05:01:47;;;;;;;5.57;2.92;;;7.00;48.20;;;;;;5031341;28;20124;-75
2021/04/28 05:04:13;;;;;;;4.95;2.10;;;6.90;48.20;;;;;;5030480;28;20045;-74
2021/04/28 05:06:39;;;;;;;6.35;2.72;;;7.00;48.40;;;;;;5030331;28;20099;-76
2021/04/28 05:09:05;;;;;;;4.57;2.63;;;7.00;48.30;;;;;;5029413;28;20041;-75
2021/04/28 05:11:30;;;;;;;7.20;2.45;;;7.10;48.40;;;;;;5029952;28;20029;-74
2021/04/28 05:13:56;;;;;;;6.30;2.58;;;7.10;48.20;;;;;;5031970;28;20026;-74
2021/04/28 05:16:21;;;;;;;6.70;2.35;;;7.10;48.20;;;;;;5030345;28;20506;-75
2021/04/28 05:18:50;;;;;;;5.40;2.50;;;7.10;48.10;;;;;;5030182;28;20061;-75
2021/04/28 05:21:15;;;;;;;7.53;2.60;;;7.20;48.20;;;;;;5030016;28;20063;-75
2021/04/28 05:23:41;;;;;;;7.13;2.83;;;7.20;48.20;;;;;;5029921;28;20449;-75
2021/04/28 05:26:06;;;;;;;5.38;2.35;;;7.10;48.30;;;;;;5031397;28;20091;-75
2021/04/28 05:28:32;;;;;;;10.85;2.42;;;7.20;48.20;;;;;;5025257;28;20033;-75
2021/04/28 05:31:01;;;;;;;6.28;2.60;;;7.20;48.20;;;;;;5024726;28;20046;-76
2021/04/28 05:33:26;;;;;;;5.90;2.85;;;7.20;48.30;;;;;;5029750;28;20482;-75
2021/04/28 05:35:52;;;;;;;5.40;2.42;;;7.30;48.30;;;;;;5029878;28;20112;-75
2021/04/28 05:38:17;;;;;;;5.22;2.55;;;7.40;48.20;;;;;;5028137;28;20107;-74
2021/04/28 05:40:43;;;;;;;10.70;3.45;;;7.40;48.30;;;;;;5030993;28;20123;-74
2021/04/28 05:43:09;;;;;;;7.53;2.97;;;7.40;48.20;;;;;;5029444;28;20084;-74
2021/04/28 05:45:42;;;;;;;9.02;2.75;;;7.50;48.10;;;;;;5029595;28;20478;-75
2021/04/28 05:48:08;;;;;;;4.65;2.42;;;7.50;48.00;;;;;;5029180;28;20379;-75
2021/04/28 05:50:34;;;;;;;13.40;3.40;;;7.60;48.10;;;;;;5029513;28;20079;-75
2021/04/28 05:53:00;;;;;;;7.63;2.70;;;7.80;48.00;;;;;;5031136;28;20131;-74
2021/04/28 05:55:25;;;;;;;4.93;2.42;;;7.80;47.90;;;;;;5028551;28;20049;-76
2021/04/28 05:57:51;;;;;;;5.80;2.88;;;7.80;47.80;;;;;;5028331;28;20038;-76
2021/04/28 06:00:17;;;;;;;4.97;2.90;;;7.80;47.90;;;;;;5029639;28;20453;-74
2021/04/28 06:02:43;;;;;;;7.10;2.95;;;7.90;47.80;;;;;;5029022;28;20821;-77
2021/04/28 06:05:09;;;;;;;8.35;3.03;;;8.00;47.80;;;;;;5030266;28;20055;-76
2021/04/28 06:07:35;;;;;;;7.10;2.97;;;8.10;47.60;;;;;;5029155;28;20105;-74
2021/04/28 06:10:00;;;;;;;11.60;3.00;;;8.10;47.70;;;;;;5029168;28;20049;-74
2021/04/28 06:12:26;;;;;;;4.32;2.65;;;8.20;47.80;;;;;;5029120;28;20108;-75
2021/04/28 06:14:52;;;;;;;6.53;2.72;;;8.20;47.60;;;;;;5028996;28;20039;-74
2021/04/28 06:17:18;;;;;;;5.97;2.88;;;8.20;47.50;;;;;;5027915;28;20038;-76
2021/04/28 06:19:43;;;;;;;8.88;4.28;;;8.30;48.20;;;;;;5030450;28;20026;-76
2021/04/28 06:22:09;;;;;;;14.60;4.05;;;8.30;47.70;;;;;;5028956;28;20542;-75
2021/04/28 06:24:35;;;;;;;8.63;3.75;;;8.30;47.60;;;;;;5027857;28;20172;-74
2021/04/28 06:27:00;;;;;;;14.85;4.13;;;8.40;47.50;;;;;;5028130;28;20364;-76
2021/04/28 06:29:27;;;;;;;10.15;4.63;;;8.50;47.50;;;;;;5028198;28;20120;-75
2021/04/28 06:31:53;;;;;;;14.73;5.65;;;8.60;47.50;;;;;;5029391;28;20447;-75
2021/04/28 06:34:19;;;;;;;15.63;4.63;;;8.50;47.60;;;;;;5027980;28;20095;-75
2021/04/28 06:36:44;;;;;;;16.35;5.28;;;8.60;47.60;;;;;;5028880;28;20197;-75
2021/04/28 06:39:11;;;;;;;17.67;4.65;;;8.60;47.70;;;;;;5028720;28;20037;-76
2021/04/28 06:41:37;;;;;;;10.52;4.10;;;8.70;47.60;;;;;;5029038;28;20038;-75
2021/04/28 06:44:04;;;;;;;15.18;4.78;;;8.80;47.40;;;;;;5030477;28;20384;-75
2021/04/28 06:46:29;;;;;;;18.25;4.85;;;8.90;47.30;;;;;;5028729;28;20444;-77
2021/04/28 06:48:55;;;;;;;11.27;4.80;;;9.10;47.30;;;;;;5028317;28;20042;-75
2021/04/28 06:51:21;;;;;;;13.18;4.95;;;9.30;47.20;;;;;;5028832;28;20037;-74
2021/04/28 06:53:46;;;;;;;16.88;5.38;;;9.80;47.20;;;;;;5028123;28;20135;-76
2021/04/28 06:56:12;;;;;;;22.63;5.47;;;10.60;45.90;;;;;;5028734;28;20032;-75
2021/04/28 06:58:38;;;;;;;14.65;4.85;;;11.40;44.70;;;;;;5029931;28;20026;-76
2021/04/28 07:01:05;;;;;;;12.40;5.07;;;12.20;43.70;;;;;;5028841;28;20033;-76
2021/04/28 07:03:30;;;;;;;9.80;4.75;;;12.80;42.80;;;;;;5027335;28;20146;-75
2021/04/28 07:05:56;;;;;;;16.67;6.03;;;13.40;42.20;;;;;;5028380;28;20527;-75
2021/04/28 07:08:22;;;;;;;16.10;5.63;;;14.10;40.80;;;;;;5028552;28;20026;-75
2021/04/28 07:10:47;;;;;;;15.80;5.70;;;14.50;39.60;;;;;;5030076;28;20021;-74
2021/04/28 07:13:13;;;;;;;16.98;6.30;;;14.80;39.60;;;;;;5028392;28;20148;-74
2021/04/28 07:15:39;;;;;;;12.02;5.78;;;15.30;38.30;;;;;;5028554;28;20043;-74
2021/04/28 07:18:04;;;;;;;12.80;5.55;;;16.00;37.60;;;;;;5030844;28;20521;-74
2021/04/28 07:20:30;;;;;;;28.92;7.35;;;16.50;36.60;;;;;;5031807;28;20574;-75
2021/04/28 07:22:56;;;;;;;19.95;6.38;;;17.10;35.80;;;;;;5033751;28;20022;-75
2021/04/28 07:25:22;;;;;;;14.68;5.97;;;17.10;35.30;;;;;;5032170;28;20491;-76
2021/04/28 07:27:47;;;;;;;19.83;5.55;;;17.40;35.40;;;;;;5032040;28;20447;-75
2021/04/28 07:30:15;;;;;;;14.02;5.63;;;17.70;34.90;;;;;;5032055;28;20556;-75
2021/04/28 07:32:41;;;;;;;15.10;5.90;;;18.10;34.40;;;;;;5031901;28;20043;-74
2021/04/28 07:35:08;;;;;;;18.35;6.07;;;18.60;33.80;;;;;;5033865;28;20037;-74
2021/04/28 07:37:34;;;;;;;9.55;5.07;;;19.10;33.30;;;;;;5010974;28;20050;-73
2021/04/28 07:39:59;;;;;;;8.77;4.95;;;19.50;32.60;;;;;;5027073;28;20025;-73
2021/04/28 07:42:25;;;;;;;9.20;5.22;;;20.30;32.00;;;;;;5027369;28;20046;-75
2021/04/28 07:44:51;;;;;;;11.52;5.95;;;20.70;31.60;;;;;;5017558;28;20041;-74
2021/04/28 07:47:16;;;;;;;17.35;6.22;;;21.20;31.10;;;;;;5031752;28;20375;-72
2021/04/28 07:49:42;;;;;;;18.55;8.43;;;21.60;30.40;;;;;;5033401;28;20108;-74
2021/04/28 07:52:08;;;;;;;15.40;6.63;;;22.20;30.00;;;;;;5031642;28;20444;-74
2021/04/28 07:54:33;;;;;;;11.15;4.90;;;22.40;29.40;;;;;;5031697;28;20112;-73
2021/04/28 07:57:01;;;;;;;11.25;4.90;;;22.50;28.90;;;;;;5031417;28;20032;-74
2021/04/28 07:59:27;;;;;;;11.85;5.35;;;22.70;28.80;;;;;;5031300;28;20021;-73
2021/04/28 08:01:52;;;;;;;12.40;4.90;;;23.50;29.20;;;;;;5032930;28;20028;-75
2021/04/28 08:04:20;;;;;;;8.20;4.80;;;23.60;28.40;;;;;;5030204;28;20204;-74
2021/04/28 08:06:47;;;;;;;9.30;4.72;;;23.90;28.00;;;;;;5031342;28;20498;-74
2021/04/28 08:09:13;;;;;;;12.00;5.05;;;24.40;27.90;;;;;;5030170;28;20490;-73
2021/04/28 08:11:39;;;;;;;12.77;5.38;;;24.10;27.70;;;;;;5030747;28;20123;-77
2021/04/28 08:14:04;;;;;;;15.38;6.00;;;24.70;27.80;;;;;;5032736;28;20033;-75
2021/04/28 08:16:34;;;;;;;11.68;6.68;;;25.20;27.10;;;;;;5031385;28;20037;-75
2021/04/28 08:19:01;;;;;;;13.52;6.07;;;25.60;27.20;;;;;;5031377;28;20048;-75
2021/04/28 08:21:26;;;;;;;10.23;5.40;;;25.60;27.20;;;;;;5031423;28;20029;-76
2021/04/28 08:23:53;;;;;;;14.02;5.22;;;25.30;26.90;;;;;;5029858;28;20067;-74
2021/04/28 08:26:18;;;;;;;13.07;5.25;;;25.40;26.90;;;;;;5030958;28;20108;-76
2021/04/28 08:28:46;;;;;;;11.70;5.78;;;25.60;26.20;;;;;;5032466;28;20417;-76
2021/04/28 08:31:22;;;;;;;11.40;5.30;;;26.10;25.90;;;;;;5030893;28;20030;-77
2021/04/28 08:33:48;;;;;;;15.25;5.70;;;26.80;25.90;;;;;;5031149;28;20037;-75
2021/04/28 08:36:14;;;;;;;16.05;6.57;;;27.30;26.00;;;;;;5030842;28;20103;-77
2021/04/28 08:38:41;;;;;;;14.70;5.55;;;27.40;25.60;;;;;;5030831;28;20120;-75
2021/04/28 08:41:08;;;;;;;15.95;6.93;;;26.80;25.90;;;;;;5032585;28;20095;-76
2021/04/28 08:43:34;;;;;;;19.00;6.00;;;26.30;25.60;;;;;;5030633;28;20033;-76
2021/04/28 08:46:01;;;;;;;10.30;5.85;;;26.50;25.90;;;;;;5015836;28;20100;-75
2021/04/28 08:48:28;;;;;;;9.65;5.72;;;26.80;25.80;;;;;;5020791;28;20037;-75
2021/04/28 08:50:54;;;;;;;10.82;5.95;;;27.10;25.30;;;;;;5031097;28;20044;-76
2021/04/28 08:53:20;;;;;;;12.40;6.18;;;27.10;25.40;;;;;;5029527;28;20017;-76
2021/04/28 08:55:46;;;;;;;13.68;5.82;;;27.30;25.50;;;;;;5031263;28;20394;-75
2021/04/28 08:58:12;;;;;;;14.55;5.80;;;27.30;25.10;;;;;;5030587;28;20037;-75
2021/04/28 09:00:38;;;;;;;13.77;5.60;;;27.50;24.90;;;;;;5030765;28;20041;-76
2021/04/28 09:03:05;;;;;;;15.45;5.95;;;27.80;24.60;;;;;;5029220;28;20092;-75
2021/04/28 09:05:33;;;;;;;12.32;5.57;;;28.80;23.90;;;;;;5030463;28;20343;-75
2021/04/28 09:08:00;;;;;;;10.82;5.22;;;29.20;23.80;;;;;;5031777;28;20021;-75
2021/04/28 09:10:29;;;;;;;10.93;5.53;;;29.40;23.70;;;;;;5029976;28;20053;-75
2021/04/28 09:13:07;;;;;;;13.85;5.53;;;29.10;23.70;;;;;;5016001;28;20046;-75
2021/04/28 09:15:40;;;;;;;;;;;29.00;23.70;;;;;;5021555;28;20041;-76
2021/04/28 09:18:08;;;;;;;9.75;4.82;;;29.20;22.90;;;;;;5030330;28;19917;-77
2021/04/28 09:20:37;;;;;;;10.40;5.07;;;29.00;22.70;;;;;;5030263;28;20037;-78
2021/04/28 09:23:04;;;;;;;9.00;4.45;;;29.40;23.20;;;;;;5031695;28;20025;-75
2021/04/28 09:25:35;;;;;;;10.48;5.55;;;28.90;23.60;;;;;;5030015;28;20053;-76
2021/04/28 09:28:24;;;;;;;8.40;5.40;;;29.20;23.50;;;;;;5029888;28;20040;-76
2021/04/28 09:30:55;;;;;;;12.43;5.55;;;29.50;23.40;;;;;;5029619;28;20037;-78
2021/04/28 09:33:20;;;;;;;10.35;5.75;;;30.00;23.00;;;;;;5029573;28;20037;-75
2021/04/28 09:35:58;;;;;;;8.25;5.28;;;29.20;22.70;;;;;;5029156;28;20044;-74
2021/04/28 09:38:27;;;;;;;7.93;5.72;;;29.70;22.50;;;;;;5029655;28;20037;-74
2021/04/28 09:40:59;;;;;;;13.43;6.70;;;29.70;22.10;;;;;;5030588;28;20037;-75
2021/04/28 09:43:37;;;;;;;12.00;5.97;;;29.90;21.90;;;;;;5029269;28;20126;-75
2021/04/28 09:46:03;;;;;;;8.65;5.47;;;31.00;22.20;;;;;;5029437;28;20045;-75
2021/04/28 09:48:29;;;;;;;13.77;6.05;;;31.10;22.20;;;;;;5027932;28;20041;-74
2021/04/28 09:51:05;;;;;;;10.18;6.75;;;30.70;22.50;;;;;;5029735;28;20033;-75
2021/04/28 09:53:31;;;;;;;16.75;6.82;;;30.30;22.30;;;;;;5029445;28;20021;-76
2021/04/28 09:55:58;;;;;;;12.05;6.57;;;29.80;22.30;;;;;;5031227;28;20163;-74
2021/04/28 09:58:52;;;;;;;19.80;8.48;;;29.70;22.50;;;;;;5029603;28;20030;-75
2021/04/28 10:01:30;;;;;;;11.95;6.63;;;29.80;22.80;;;;;;5029217;28;20041;-74
2021/04/28 10:03:56;;;;;;;12.65;7.55;;;29.70;22.20;;;;;;5028622;28;20040;-74
2021/04/28 10:06:39;;;;;;;13.48;6.55;;;29.60;22.50;;;;;;5029397;28;20034;-74
2021/04/28 10:09:28;;;;;;;14.65;7.53;;;30.30;22.60;;;;;;5029091;28;20042;-74
2021/04/28 10:11:54;;;;;;;19.65;8.30;;;30.30;21.90;;;;;;5023184;28;20119;-75
2021/04/28 10:14:20;;;;;;;18.13;8.45;;;28.20;22.10;;;;;;5009241;28;20026;-74
2021/04/28 10:16:47;;;;;;;12.30;7.20;;;29.00;22.70;;;;;;5030385;28;20419;-75
2021/04/28 10:19:15;;;;;;;19.42;8.65;;;29.00;23.00;;;;;;5029599;28;20481;-75
2021/04/28 10:21:42;;;;;;;11.93;7.22;;;28.80;22.90;;;;;;5029091;28;20137;-75
2021/04/28 10:24:10;;;;;;;17.80;8.05;;;28.30;23.10;;;;;;5029020;28;20041;-75
2021/04/28 10:26:37;;;;;;;18.40;8.73;;;28.20;23.50;;;;;;5028932;28;20025;-78
2021/04/28 10:29:06;;;;;;;;;;;27.80;24.10;;;;;;5031005;28;20096;-76
2021/04/28 10:31:32;;;;;;;17.85;7.78;;;26.90;24.30;;;;;;5028535;28;20256;-74
2021/04/28 10:34:00;;;;;;;16.48;8.13;;;26.20;24.60;;;;;;5028246;28;20029;-75
2021/04/28 10:36:26;;;;;;;12.93;7.85;;;25.10;25.10;;;;;;5029051;28;20084;-75
2021/04/28 10:38:51;;;;;;;13.77;8.93;;;24.80;26.00;;;;;;5029139;28;20033;-74
2021/04/28 10:41:41;;;;;;;20.02;9.35;;;24.20;26.00;;;;;;5028825;28;20017;-76
2021/04/28 10:44:29;;;;;;;10.27;7.88;;;24.20;26.50;;;;;;5030453;28;20056;-75
2021/04/28 10:47:14;;;;;;;19.25;8.32;;;23.60;26.60;;;;;;5027766;28;20143;-75
2021/04/28 10:49:58;;;;;;;18.25;9.10;;;24.00;26.80;;;;;;5028642;28;20054;-75
2021/04/28 10:52:29;;;;;;;16.05;8.70;;;23.40;26.90;;;;;;5031464;28;20041;-75
2021/04/28 10:54:55;;;;;;;20.45;8.55;;;22.80;27.40;;;;;;5032642;28;20136;-74
2021/04/28 10:57:38;;;;;;;13.68;8.50;;;23.00;27.80;;;;;;5033187;28;20096;-73
2021/04/28 11:00:19;;;;;;;14.15;8.52;;;22.90;27.40;;;;;;5032791;28;20034;-74
2021/04/28 11:02:45;;;;;;;16.92;9.45;;;22.80;27.90;;;;;;5027407;28;20109;-74
2021/04/28 11:05:25;;;;;;;20.08;9.50;;;22.60;28.00;;;;;;5014187;28;20375;-75
2021/04/28 11:07:56;;;;;;;39.58;24.00;;;22.60;28.30;;;;;;5032721;28;20037;-75
2021/04/28 11:10:36;;;;;;;15.35;9.73;;;22.50;28.70;;;;;;5032676;28;20435;-74
2021/04/28 11:13:09;;;;;;;17.40;8.50;;;22.20;28.80;;;;;;5031452;28;20153;-74
2021/04/28 11:15:48;;;;;;;19.92;9.00;;;22.10;28.80;;;;;;5030870;28;20413;-75
2021/04/28 11:18:34;;;;;;;16.33;8.95;;;22.00;29.00;;;;;;5032140;28;20128;-74
2021/04/28 11:21:18;;;;;;;15.63;9.10;;;22.10;28.70;;;;;;5030806;28;20049;-74
2021/04/28 11:24:06;;;;;;;18.90;10.38;;;22.10;28.60;;;;;;5031507;28;20095;-77
2021/04/28 11:26:53;;;;;;;15.80;8.75;;;22.10;28.90;;;;;;5032205;28;20042;-74
2021/04/28 11:29:20;;;;;;;14.75;8.80;;;22.00;29.20;;;;;;5030883;28;20463;-76
2021/04/28 11:31:49;;;;;;;20.00;9.63;;;22.10;29.20;;;;;;5033451;28;20076;-74
2021/04/28 11:34:18;;;;;;;19.25;10.75;;;21.90;29.40;;;;;;5032253;28;20263;-75
2021/04/28 11:36:58;;;;;;;18.38;10.82;;;21.70;29.50;;;;;;5031968;28;20069;-74
2021/04/28 11:39:35;;;;;;;18.48;9.52;;;21.70;29.50;;;;;;5031815;28;20056;-75
2021/04/28 11:42:13;;;;;;;13.80;9.13;;;21.70;29.60;;;;;;5025610;28;20026;-74
2021/04/28 11:44:51;;;;;;;15.43;9.60;;;21.70;29.50;;;;;;5016047;28;20040;-75
2021/04/28 11:47:18;;;;;;;14.77;9.75;;;21.70;29.50;;;;;;5032208;28;20021;-75
2021/04/28 11:49:47;;;;;;;14.63;9.77;;;21.60;29.50;;;;;;5033188;28;20033;-76
2021/04/28 11:52:17;;;;;;;15.77;10.40;;;21.50;29.80;;;;;;5030418;28;20047;-76
2021/04/28 11:54:44;;;;;;;18.77;10.48;;;21.30;30.00;;;;;;5030325;28;20033;-76
2021/04/28 11:57:11;;;;;;;18.50;10.52;;;21.30;30.10;;;;;;5030156;28;20041;-75
2021/04/28 11:59:38;;;;;;;17.42;10.38;;;21.40;30.00;;;;;;5031430;28;20034;-76
2021/04/28 12:02:05;;;;;;;15.38;9.63;;;21.30;30.00;;;;;;5033135;28;20026;-76
2021/04/28 12:04:41;;;;;;;21.75;10.05;;;21.40;30.00;;;;;;5031086;28;20115;-77
2021/04/28 12:07:08;;;;;;;20.50;9.82;;;21.20;29.80;;;;;;5031375;28;20052;-76
2021/04/28 12:09:47;;;;;;;19.60;11.13;;;21.20;30.00;;;;;;5031223;28;20350;-77
2021/04/28 12:12:24;;;;;;;21.35;9.60;;;21.30;30.00;;;;;;5031751;28;20033;-76
2021/04/28 12:15:11;;;;;;;19.33;10.32;;;21.40;30.00;;;;;;5031201;28;20129;-76
2021/04/28 12:17:45;;;;;;;16.47;10.13;;;21.30;30.00;;;;;;5031039;28;20464;-76
2021/04/28 12:20:19;;;;;;;15.50;9.60;;;21.20;30.10;;;;;;5032586;28;20028;-75
2021/04/28 12:22:46;;;;;;;14.57;8.38;;;21.20;29.90;;;;;;5031514;28;20124;-75
2021/04/28 12:25:13;;;;;;;12.82;9.30;;;21.20;29.70;;;;;;5030939;28;20268;-76
2021/04/28 12:27:44;;;;;;;13.48;9.07;;;21.20;29.80;;;;;;5030722;28;20037;-75
2021/04/28 12:30:14;;;;;;;20.20;10.82;;;21.20;29.90;;;;;;5029827;28;20527;-76
2021/04/28 12:32:41;;;;;;;16.63;9.93;;;21.00;29.80;;;;;;5031230;28;20349;-74
2021/04/28 12:35:20;;;;;;;24.83;9.75;;;21.10;29.90;;;;;;5032548;28;20029;-76
2021/04/28 12:38:14;;;;;;;13.50;8.98;;;20.90;29.70;;;;;;5031568;28;20041;-76
2021/04/28 12:40:45;;;;;;;16.90;9.10;;;21.00;29.90;;;;;;5031124;28;20033;-76
2021/04/28 12:43:20;;;;;;;16.88;9.10;;;21.00;30.00;;;;;;5028840;28;20474;-76
2021/04/28 12:45:47;;;;;;;15.15;9.00;;;20.80;30.00;;;;;;5030808;28;20371;-76
2021/04/28 12:48:13;;;;;;;15.18;9.13;;;20.80;30.10;;;;;;5030686;28;20029;-75
2021/04/28 12:50:41;;;;;;;16.35;9.05;;;20.80;30.00;;;;;;5030327;28;20025;-76
2021/04/28 12:53:18;;;;;;;15.48;8.85;;;20.70;30.00;;;;;;5032198;28;20078;-75